Terminal Aerodrome Forecast
Issued by NWS Duluth, MN

Home | Current Version | Previous Version | Text Only | Print | Product List | Glossary On
Versions: 1 2 3 4 5 6 7 8 9 10 11 12 13 14 15 16 17 18 19 20 21
000
FTUS43 KDLH 280915 AAE
TAFINL
TAF AMD
KINL 280915Z 2809/2906 VRB03KT P6SM BKN029 BKN035
     FM281400 21006KT P6SM BKN050
     FM281900 21009KT P6SM VCSH OVC035=

USA.gov is the U.S. government's official web portal to all federal, state and local government web resources and services.